Shin Puropan Maru — JG5508 — position and weather

sailwx.info

Track history (hours):
 
Tides and Currents Weather Stations Pressure Air Temp Water Temp Dewpoint Dewpoint Depression Visibility Wind Speed Wind Dir Waves Ship Positions

Shin Puropan Maru

Last reported at 2018-Feb-25 22:00 UTC. Time now 2018-Feb-25 22:06 UTC.
Position N 34°36' E 135°23'.

Length 66 m; draft 4.5 m.

Type: Ship (hazmat cat A). MMSI: 431100348.

Date/timePositionNaut miles runAvg speedWind from/ knotsBaromVisibWave heightAir tempDewpointWater temp
2018-Feb-25 22:00N 34°36' E 135°23'0 0.0
2018-Feb-25 21:30N 34°36' E 135°23'0 0.0
2018-Feb-25 21:00N 34°36' E 135°23'0 0.0
2018-Feb-25 20:30N 34°36' E 135°23'0 0.0
2018-Feb-25 20:00N 34°36' E 135°23'0 0.1
2018-Feb-25 19:30N 34°36' E 135°23'0 0.0
2018-Feb-25 19:00N 34°36' E 135°23'0 0.0
2018-Feb-25 18:30N 34°36' E 135°23'0 0.1
2018-Feb-25 18:00N 34°36' E 135°23'0 0.1
2018-Feb-25 17:30N 34°36' E 135°23'0 0.1
2018-Feb-25 17:00N 34°36' E 135°23'0 0.0
2018-Feb-25 16:30N 34°36' E 135°23'0 0.0
2018-Feb-25 16:00N 34°36' E 135°23'0 0.1
2018-Feb-25 15:30N 34°36' E 135°23'0 0.1
2018-Feb-25 15:00N 34°36' E 135°23'4 7.9
2018-Feb-25 14:31N 34°34' E 135°19'510.6
2018-Feb-25 14:01N 34°30' E 135°14'510.5
2018-Feb-25 13:31N 34°26' E 135°10'510.4
2018-Feb-25 13:01N 34°23' E 135°05'510.2
2018-Feb-25 12:30N 34°19' E 135°01'4 8.5
2018-Feb-25 12:00N 34°15' E 134°60'5 9.8
2018-Feb-25 11:30N 34°10' E 135°00'510.4
2018-Feb-25 11:00N 34°05' E 135°00'510.6
2018-Feb-25 10:31N 33°60' E 135°01'159 9.3
2018-Feb-24 17:22N 34°33' E 138°10'3 9.3
2018-Feb-24 17:00N 34°33' E 138°14'16 9.5
2018-Feb-24 15:19N 34°34' E 138°34'3 8.5
2018-Feb-24 14:56N 34°35' E 138°38'9 7.2
2018-Feb-24 13:42N 34°35' E 138°48'1 5.6
2018-Feb-24 13:30N 34°35' E 138°50'4 5.6
2018-Feb-24 12:50N 34°36' E 138°54'3 7.5
2018-Feb-24 12:28N 34°36' E 138°57'6 8.6
2018-Feb-24 11:47N 34°40' E 139°02'3 9.4
2018-Feb-24 11:30N 34°43' E 139°04'510.1
2018-Feb-24 11:00N 34°47' E 139°08'1210.3
2018-Feb-24 09:50N 34°55' E 139°18'3 9.1
2018-Feb-24 09:28N 34°58' E 139°21'4 8.9
2018-Feb-24 08:58N 35°00' E 139°25'5 9.0
2018-Feb-24 08:22N 35°03' E 139°31'3 9.3
2018-Feb-24 08:00N 35°04' E 139°35'5 9.7
2018-Feb-24 07:31N 35°07' E 139°40'5 9.7
2018-Feb-24 07:00N 35°10' E 139°44'510.6
2018-Feb-24 06:29N 35°15' E 139°46'611.4
2018-Feb-24 05:59N 35°20' E 139°42'510.4
2018-Feb-24 05:30N 35°25' E 139°44'510.9
2018-Feb-24 05:00N 35°28' E 139°49'610.7
2018-Feb-24 04:29N 35°31' E 139°55'510.6
2018-Feb-24 04:00N 35°33' E 140°01'3 0.8
2018-Feb-23 23:48N 35°33' E 140°05'1 3.4
2018-Feb-23 23:30N 35°33' E 140°04'2 4.7
2018-Feb-23 23:00N 35°33' E 140°01'5 9.9
2018-Feb-23 22:30N 35°31' E 139°56'510.7
2018-Feb-23 22:00N 35°28' E 139°51'510.4
2018-Feb-23 21:30N 35°24' E 139°46'510.5
2018-Feb-23 21:00N 35°19' E 139°44'510.1
2018-Feb-23 20:30N 35°14' E 139°47'510.7
2018-Feb-23 20:00N 35°09' E 139°47'510.7
2018-Feb-23 19:31N 35°05' E 139°43'510.7
2018-Feb-23 19:00N 35°01' E 139°38'610.9
2018-Feb-23 18:26N 34°57' E 139°32'1811.5
2018-Feb-23 16:49N 34°47' E 139°14'411.5
2018-Feb-23 16:29N 34°44' E 139°10'611.1
2018-Feb-23 15:56N 34°40' E 139°04'510.8
2018-Feb-23 15:29N 34°37' E 138°59'910.1
2018-Feb-23 14:37N 34°35' E 138°49'411.3
2018-Feb-23 14:16N 34°35' E 138°44'311.4
2018-Feb-23 13:59N 34°34' E 138°41'811.1
2018-Feb-23 13:16N 34°34' E 138°31'511.9
2018-Feb-23 12:53N 34°33' E 138°25'812.3
2018-Feb-23 12:13N 34°33' E 138°15'7012.0
2018-Feb-23 06:24N 34°40' E 136°51'512.4
2018-Feb-23 06:00N 34°44' E 136°48'612.2
2018-Feb-23 05:30N 34°50' E 136°45'612.1
2018-Feb-23 05:00N 34°55' E 136°42'4 6.8
2018-Feb-23 04:26N 34°58' E 136°39'0 0.0
2018-Feb-23 03:50N 34°58' E 136°39'0 0.0
2018-Feb-23 03:26N 34°58' E 136°39'0 0.0
2018-Feb-23 02:56N 34°58' E 136°39'0 0.0
2018-Feb-23 02:26N 34°58' E 136°39'0 0.0
2018-Feb-23 01:56N 34°58' E 136°39'0 0.0
2018-Feb-23 01:26N 34°58' E 136°39'0 0.0
2018-Feb-23 00:56N 34°58' E 136°39'0 0.0
2018-Feb-23 00:26N 34°58' E 136°39'0 0.0
2018-Feb-22 23:50N 34°58' E 136°39'0 0.0
2018-Feb-22 23:26N 34°58' E 136°39'0 0.0
2018-Feb-22 23:01N 34°58' E 136°39'1 1.0
2018-Feb-22 22:29N 34°58' E 136°39'0 0.1
2018-Feb-22 21:59N 34°58' E 136°39'0 0.0
2018-Feb-22 21:26N 34°58' E 136°39'0 0.0
2018-Feb-22 20:56N 34°58' E 136°39'0 0.0
2018-Feb-22 20:29N 34°58' E 136°39'0 0.0
2018-Feb-22 19:59N 34°58' E 136°39'0 0.0
2018-Feb-22 19:29N 34°58' E 136°39'0 0.0
2018-Feb-22 18:59N 34°58' E 136°39'0 0.0
2018-Feb-22 18:29N 34°58' E 136°39'0 0.0
2018-Feb-22 17:59N 34°58' E 136°39'0 0.0
2018-Feb-22 17:29N 34°58' E 136°39'0 0.0
2018-Feb-22 16:59N 34°58' E 136°39'0 0.0
2018-Feb-22 16:29N 34°58' E 136°39'0 0.0
2018-Feb-22 15:53N 34°58' E 136°39'0 0.0
2018-Feb-22 15:26N 34°58' E 136°39'0 0.0
2018-Feb-22 14:59N 34°58' E 136°39'0 0.0
2018-Feb-22 14:26N 34°58' E 136°39'0 0.0
2018-Feb-22 13:56N 34°58' E 136°39'0 0.0
2018-Feb-22 13:26N 34°58' E 136°39'0 0.1
2018-Feb-22 12:56N 34°58' E 136°39'0 0.1
2018-Feb-22 12:29N 34°58' E 136°39'0 0.1
2018-Feb-22 11:56N 34°58' E 136°39'0 0.0
2018-Feb-22 11:29N 34°58' E 136°39'0 0.0
2018-Feb-22 10:53N 34°58' E 136°39'0 0.1
2018-Feb-22 10:29N 34°58' E 136°39'0 0.0
2018-Feb-22 09:56N 34°58' E 136°39'0 0.0
2018-Feb-22 09:29N 34°58' E 136°39'0 0.0
2018-Feb-22 08:56N 34°58' E 136°39'0 0.0
2018-Feb-22 08:29N 34°58' E 136°39'0 0.1
2018-Feb-22 07:50N 34°58' E 136°39'0 0.0
2018-Feb-22 07:20N 34°58' E 136°39'0 0.0
2018-Feb-22 06:59N 34°58' E 136°39'0 0.0
2018-Feb-22 06:26N 34°58' E 136°39'0 0.0
2018-Feb-22 05:59N 34°58' E 136°39'0 0.0
2018-Feb-22 05:29N 34°58' E 136°39'0 0.0
2018-Feb-22 04:56N 34°58' E 136°39'0 0.0
2018-Feb-22 04:29N 34°58' E 136°39'0 0.1
2018-Feb-22 03:56N 34°58' E 136°39'0 0.0
2018-Feb-22 03:23N 34°58' E 136°39'0 0.1
2018-Feb-22 02:56N 34°58' E 136°39'0 0.0
2018-Feb-22 02:29N 34°58' E 136°39'0 0.0
2018-Feb-22 01:59N 34°58' E 136°39'0 0.0
2018-Feb-22 01:26N 34°58' E 136°39'0 0.0
2018-Feb-22 00:56N 34°58' E 136°39'0 0.0
2018-Feb-22 00:26N 34°58' E 136°39'0 0.0
2018-Feb-21 23:56N 34°58' E 136°39'0 0.0
2018-Feb-21 23:26N 34°58' E 136°39'0 0.0
2018-Feb-21 22:59N 34°58' E 136°39'0 0.0
2018-Feb-21 22:29N 34°58' E 136°39'0 0.0
2018-Feb-21 21:59N 34°58' E 136°39'0 0.0
2018-Feb-21 21:29N 34°58' E 136°39'0 0.1
2018-Feb-21 20:50N 34°58' E 136°39'0 0.0
2018-Feb-21 20:29N 34°58' E 136°39'0 0.0
2018-Feb-21 19:56N 34°58' E 136°39'0 0.0
2018-Feb-21 19:26N 34°58' E 136°39'0 0.0
2018-Feb-21 18:59N 34°58' E 136°39'0 0.0
2018-Feb-21 18:29N 34°58' E 136°39'0 0.0
2018-Feb-21 17:56N 34°58' E 136°39'0 0.0
2018-Feb-21 17:14N 34°58' E 136°39'0 0.0
2018-Feb-21 16:56N 34°58' E 136°39'0 0.0
2018-Feb-21 16:26N 34°58' E 136°39'0 0.0
2018-Feb-21 15:56N 34°58' E 136°39'0 0.0
2018-Feb-21 15:29N 34°58' E 136°39'0 0.0
2018-Feb-21 14:59N 34°58' E 136°39'0 0.0
2018-Feb-21 14:26N 34°58' E 136°39'0 0.1
2018-Feb-21 13:56N 34°58' E 136°39'0 0.1
2018-Feb-21 13:26N 34°58' E 136°39'0 0.0
2018-Feb-21 12:56N 34°58' E 136°39'0 0.0
2018-Feb-21 12:29N 34°58' E 136°39'0 0.0
2018-Feb-21 11:50N 34°58' E 136°39'0 0.1
2018-Feb-21 11:29N 34°58' E 136°39'0 0.0
2018-Feb-21 10:56N 34°58' E 136°39'0 0.0
2018-Feb-21 10:26N 34°58' E 136°39'0 0.1
2018-Feb-21 09:50N 34°58' E 136°39'0 0.0
2018-Feb-21 09:26N 34°58' E 136°39'0 0.0
2018-Feb-21 08:50N 34°58' E 136°39'0 0.0
2018-Feb-21 08:26N 34°58' E 136°39'0 0.1
2018-Feb-21 08:00N 34°58' E 136°39'1 2.4
2018-Feb-21 07:27N 34°57' E 136°38'0 0.0
2018-Feb-21 06:51N 34°57' E 136°38'0 0.0
2018-Feb-21 06:21N 34°57' E 136°38'0 0.0
2018-Feb-21 05:57N 34°57' E 136°38'0 0.0
2018-Feb-21 05:27N 34°57' E 136°38'0 0.0
2018-Feb-21 04:57N 34°57' E 136°38'0 0.0
2018-Feb-21 04:27N 34°57' E 136°38'0 0.0
2018-Feb-21 04:00N 34°57' E 136°38'0 0.0
2018-Feb-21 03:30N 34°57' E 136°38'0 0.0
2018-Feb-21 02:57N 34°57' E 136°38'0 0.0
2018-Feb-21 02:27N 34°57' E 136°38'0 0.0
2018-Feb-21 02:00N 34°57' E 136°38'1 1.6
2018-Feb-21 01:30N 34°57' E 136°39'1 1.5
2018-Feb-21 01:00N 34°57' E 136°40'0 0.0
2018-Feb-21 00:30N 34°57' E 136°40'0 0.0
2018-Feb-20 23:57N 34°57' E 136°40'1 1.6
2018-Feb-20 23:30N 34°57' E 136°41'611.2
2018-Feb-20 23:00N 34°52' E 136°44'611.6
2018-Feb-20 22:30N 34°47' E 136°47'611.6
2018-Feb-20 22:00N 34°41' E 136°50'32 9.3
2018-Feb-20 18:36N 34°10' E 136°48'410.9
2018-Feb-20 18:15N 34°07' E 136°45'83 9.2
2018-Feb-20 09:11N 33°48' E 135°07'312.0
2018-Feb-20 08:54N 33°51' E 135°04'512.1
2018-Feb-20 08:30N 33°55' E 135°02'612.5
2018-Feb-20 08:00N 34°01' E 135°01'612.5
2018-Feb-20 07:30N 34°08' E 135°00'612.4
2018-Feb-20 07:00N 34°14' E 134°59'612.5
2018-Feb-20 06:30N 34°20' E 134°60'612.1
2018-Feb-20 06:00N 34°24' E 135°04'612.0
2018-Feb-20 05:30N 34°28' E 135°10'611.4
2018-Feb-20 05:00N 34°32' E 135°16'510.2
2018-Feb-20 04:30N 34°35' E 135°20'4 8.1
2018-Feb-20 04:00N 34°36' E 135°25'1 2.6
2018-Feb-20 03:29N 34°34' E 135°26'0 0.0
2018-Feb-20 02:59N 34°34' E 135°26'0 0.0
2018-Feb-20 02:29N 34°34' E 135°26'0 0.0
2018-Feb-20 01:59N 34°34' E 135°26'0 0.0
2018-Feb-20 01:29N 34°34' E 135°26'0 0.0
2018-Feb-20 00:59N 34°34' E 135°26'0 0.9
2018-Feb-20 00:30N 34°35' E 135°25'4 7.5
2018-Feb-20 00:00N 34°35' E 135°21'611.0
2018-Feb-19 23:30N 34°31' E 135°16'611.2
2018-Feb-19 23:00N 34°27' E 135°11'611.1
2018-Feb-19 22:30N 34°24' E 135°06'510.7
2018-Feb-19 22:00N 34°20' E 135°02'5 9.6
2018-Feb-19 21:30N 34°16' E 134°59'5 9.5
2018-Feb-19 21:00N 34°11' E 135°00'510.3
2018-Feb-19 20:30N 34°06' E 135°01'510.1
2018-Feb-19 20:00N 34°01' E 135°01'510.0
2018-Feb-19 19:30N 33°56' E 135°02'5 9.6
2018-Feb-19 18:58N 33°51' E 135°04'100 7.3
2018-Feb-19 05:12N 34°39' E 136°51'211.0
2018-Feb-19 04:59N 34°41' E 136°49'611.3
2018-Feb-19 04:30N 34°46' E 136°46'611.1
2018-Feb-19 04:00N 34°51' E 136°43'510.6
2018-Feb-19 03:30N 34°56' E 136°41'3 2.4
2018-Feb-19 02:21N 34°58' E 136°39'0 0.0
2018-Feb-19 01:39N 34°58' E 136°39'0 0.0
2018-Feb-19 01:15N 34°58' E 136°39'0 0.0
2018-Feb-19 00:57N 34°58' E 136°39'0 0.0
2018-Feb-19 00:21N 34°58' E 136°39'0 0.0
2018-Feb-18 23:57N 34°58' E 136°39'0 0.0
2018-Feb-18 23:27N 34°58' E 136°39'0 0.0
2018-Feb-18 23:00N 34°58' E 136°39'1 2.4
2018-Feb-18 22:29N 34°57' E 136°40'0 0.1
2018-Feb-18 21:56N 34°57' E 136°40'0 0.0
2018-Feb-18 21:26N 34°57' E 136°40'0 0.0
2018-Feb-18 20:56N 34°57' E 136°40'0 0.0
2018-Feb-18 20:20N 34°57' E 136°40'0 0.0
2018-Feb-18 19:59N 34°57' E 136°40'0 0.0
2018-Feb-18 19:26N 34°57' E 136°40'0 0.0
2018-Feb-18 18:56N 34°57' E 136°40'0 0.0
2018-Feb-18 18:20N 34°57' E 136°40'0 0.0
2018-Feb-18 17:59N 34°57' E 136°40'0 0.0
2018-Feb-18 17:26N 34°57' E 136°40'0 0.0
2018-Feb-18 16:59N 34°57' E 136°40'0 0.0
2018-Feb-18 16:26N 34°57' E 136°40'0 0.0
2018-Feb-18 15:56N 34°57' E 136°40'0 0.0
2018-Feb-18 15:26N 34°57' E 136°40'0 0.0
2018-Feb-18 14:59N 34°57' E 136°40'0 0.0
2018-Feb-18 14:29N 34°57' E 136°40'0 0.0
2018-Feb-18 13:56N 34°57' E 136°40'0 0.0
2018-Feb-18 13:29N 34°57' E 136°40'0 0.0
2018-Feb-18 12:59N 34°57' E 136°40'0 0.0
2018-Feb-18 12:23N 34°57' E 136°40'0 0.0
2018-Feb-18 11:59N 34°57' E 136°40'0 0.0
2018-Feb-18 11:29N 34°57' E 136°40'0 0.0
2018-Feb-18 10:59N 34°57' E 136°40'0 0.0
2018-Feb-18 10:29N 34°57' E 136°40'0 0.0
2018-Feb-18 09:59N 34°57' E 136°40'0 0.0
2018-Feb-18 09:29N 34°57' E 136°40'0 0.0
2018-Feb-18 08:59N 34°57' E 136°40'0 0.0
2018-Feb-18 08:26N 34°57' E 136°40'0 0.0
2018-Feb-18 07:56N 34°57' E 136°40'0 0.0
2018-Feb-18 07:29N 34°57' E 136°40'0 0.0
2018-Feb-18 06:56N 34°57' E 136°40'0 0.0
2018-Feb-18 06:23N 34°57' E 136°40'0 0.0
2018-Feb-18 05:56N 34°57' E 136°40'0 0.0
2018-Feb-18 05:26N 34°57' E 136°40'0 0.0
2018-Feb-18 04:56N 34°57' E 136°40'0 0.0
2018-Feb-18 04:29N 34°57' E 136°40'1 2.1
2018-Feb-18 04:01N 34°58' E 136°40'1 1.4
2018-Feb-18 03:29N 34°58' E 136°39'0 0.0
2018-Feb-18 02:53N 34°58' E 136°39'0 0.0
2018-Feb-18 02:29N 34°58' E 136°39'0 0.0
2018-Feb-18 01:59N 34°58' E 136°39'0 0.0
2018-Feb-18 01:29N 34°58' E 136°39'0 0.0
2018-Feb-18 00:59N 34°58' E 136°39'0 0.0
2018-Feb-18 00:23N 34°58' E 136°39'0 0.0
2018-Feb-17 23:59N 34°58' E 136°39'0 0.0
2018-Feb-17 23:17N 34°58' E 136°39'0 0.0
2018-Feb-17 23:00N 34°58' E 136°39'2 4.6
2018-Feb-17 22:30N 34°56' E 136°41'2 4.0
2018-Feb-17 21:55N 34°54' E 136°41'0 0.1
2018-Feb-17 21:25N 34°54' E 136°41'0 0.0
2018-Feb-17 20:55N 34°54' E 136°41'0 0.0
2018-Feb-17 20:25N 34°54' E 136°41'0 0.1
2018-Feb-17 19:58N 34°54' E 136°41'0 0.0
2018-Feb-17 19:28N 34°54' E 136°41'0 0.0
2018-Feb-17 18:58N 34°54' E 136°41'0 0.0
2018-Feb-17 18:28N 34°54' E 136°41'0 0.0
2018-Feb-17 17:58N 34°54' E 136°41'0 0.0
2018-Feb-17 17:28N 34°54' E 136°41'0 0.0
2018-Feb-17 16:58N 34°54' E 136°41'0 0.0
2018-Feb-17 16:28N 34°54' E 136°41'0 0.0
2018-Feb-17 15:58N 34°54' E 136°41'0 0.0
2018-Feb-17 15:28N 34°54' E 136°41'0 0.1
2018-Feb-17 14:55N 34°54' E 136°41'0 0.0
2018-Feb-17 14:28N 34°54' E 136°41'0 0.0
2018-Feb-17 13:55N 34°54' E 136°41'0 0.0
2018-Feb-17 13:25N 34°54' E 136°41'0 0.0
2018-Feb-17 12:49N 34°54' E 136°41'0 0.0
2018-Feb-17 12:25N 34°54' E 136°41'0 0.0
2018-Feb-17 11:55N 34°54' E 136°41'0 0.0
2018-Feb-17 11:28N 34°54' E 136°41'0 0.0
2018-Feb-17 10:58N 34°54' E 136°41'0 0.0
2018-Feb-17 10:19N 34°54' E 136°41'0 0.0
2018-Feb-17 09:58N 34°54' E 136°41'0 0.0
2018-Feb-17 09:22N 34°54' E 136°41'0 0.0
2018-Feb-17 08:55N 34°54' E 136°41'0 0.1
2018-Feb-17 08:22N 34°54' E 136°41'0 0.1
2018-Feb-17 07:55N 34°54' E 136°41'0 0.0
2018-Feb-17 07:30N 34°54' E 136°41'3 6.8
2018-Feb-17 07:01N 34°51' E 136°43'4 8.8
2018-Feb-17 06:30N 34°48' E 136°46'4 8.7
2018-Feb-17 06:01N 34°44' E 136°49'4 8.6
2018-Feb-17 05:30N 34°40' E 136°51'101 7.0
2018-Feb-16 15:12N 33°49' E 135°07'311.3
2018-Feb-16 14:55N 33°51' E 135°04'511.1
2018-Feb-16 14:31N 33°55' E 135°02'611.6
2018-Feb-16 14:01N 34°01' E 135°01'611.1
2018-Feb-16 13:30N 34°06' E 135°00'611.0
2018-Feb-16 13:00N 34°12' E 134°59'510.6
2018-Feb-16 12:30N 34°17' E 134°58'510.2
2018-Feb-16 12:00N 34°22' E 135°00'611.0
2018-Feb-16 11:30N 34°25' E 135°06'510.9
2018-Feb-16 11:01N 34°29' E 135°11'511.0
2018-Feb-16 10:30N 34°32' E 135°16'511.0
2018-Feb-16 10:01N 34°35' E 135°21'3 6.9
2018-Feb-16 09:30N 34°35' E 135°26'0 0.4
2018-Feb-16 09:00N 34°35' E 135°26'0 0.0
2018-Feb-16 08:30N 34°35' E 135°26'0 0.0
2018-Feb-16 07:57N 34°35' E 135°26'0 0.0
2018-Feb-16 07:30N 34°35' E 135°26'0 0.0
2018-Feb-16 06:57N 34°35' E 135°26'0 0.0
2018-Feb-16 06:27N 34°35' E 135°26'0 0.0
2018-Feb-16 05:57N 34°35' E 135°26'0 0.0
2018-Feb-16 05:27N 34°35' E 135°26'0 0.0
2018-Feb-16 04:56N 34°35' E 135°26'0 0.9
2018-Feb-16 04:31N 34°35' E 135°25'2 3.9
2018-Feb-16 04:01N 34°36' E 135°24'1 1.3
2018-Feb-16 03:26N 34°36' E 135°23'0 0.0
2018-Feb-16 02:59N 34°36' E 135°23'0 0.0
2018-Feb-16 02:29N 34°36' E 135°23'0 0.1
2018-Feb-16 01:59N 34°36' E 135°23'0 0.1
2018-Feb-16 01:29N 34°36' E 135°23'0 0.0
2018-Feb-16 00:59N 34°36' E 135°23'0 0.0
2018-Feb-16 00:29N 34°36' E 135°23'0 0.1
2018-Feb-15 23:59N 34°36' E 135°23'0 0.0
2018-Feb-15 23:29N 34°36' E 135°23'0 0.1
2018-Feb-15 22:59N 34°36' E 135°23'0 0.0
2018-Feb-15 22:29N 34°36' E 135°23'  
Track history (hours):
 
Tides and Currents Weather Stations Pressure Air Temp Water Temp Dewpoint Dewpoint Depression Visibility Wind Speed Wind Dir Waves Ship Positions

Shin Puropan Maru

Last reported at 2018-Feb-25 22:00 UTC. Time now 2018-Feb-25 22:06 UTC.
Position N 34°36' E 135°23'.

Length 66 m; draft 4.5 m.

Type: Ship (hazmat cat A). MMSI: 431100348.

Date/timePositionNaut miles runAvg speedWind from/ knotsBaromVisibWave heightAir tempDewpointWater temp
2018-Feb-25 22:00N 34°36' E 135°23'0 0.0
2018-Feb-25 21:30N 34°36' E 135°23'0 0.0
2018-Feb-25 21:00N 34°36' E 135°23'0 0.0
2018-Feb-25 20:30N 34°36' E 135°23'0 0.0
2018-Feb-25 20:00N 34°36' E 135°23'0 0.1
2018-Feb-25 19:30N 34°36' E 135°23'0 0.0
2018-Feb-25 19:00N 34°36' E 135°23'0 0.0
2018-Feb-25 18:30N 34°36' E 135°23'0 0.1
2018-Feb-25 18:00N 34°36' E 135°23'0 0.1
2018-Feb-25 17:30N 34°36' E 135°23'0 0.1
2018-Feb-25 17:00N 34°36' E 135°23'0 0.0
2018-Feb-25 16:30N 34°36' E 135°23'0 0.0
2018-Feb-25 16:00N 34°36' E 135°23'0 0.1
2018-Feb-25 15:30N 34°36' E 135°23'0 0.1
2018-Feb-25 15:00N 34°36' E 135°23'4 7.9
2018-Feb-25 14:31N 34°34' E 135°19'510.6
2018-Feb-25 14:01N 34°30' E 135°14'510.5
2018-Feb-25 13:31N 34°26' E 135°10'510.4
2018-Feb-25 13:01N 34°23' E 135°05'510.2
2018-Feb-25 12:30N 34°19' E 135°01'4 8.5
2018-Feb-25 12:00N 34°15' E 134°60'5 9.8
2018-Feb-25 11:30N 34°10' E 135°00'510.4
2018-Feb-25 11:00N 34°05' E 135°00'510.6
2018-Feb-25 10:31N 33°60' E 135°01'159 9.3
2018-Feb-24 17:22N 34°33' E 138°10'3 9.3
2018-Feb-24 17:00N 34°33' E 138°14'16 9.5
2018-Feb-24 15:19N 34°34' E 138°34'3 8.5
2018-Feb-24 14:56N 34°35' E 138°38'9 7.2
2018-Feb-24 13:42N 34°35' E 138°48'1 5.6
2018-Feb-24 13:30N 34°35' E 138°50'4 5.6
2018-Feb-24 12:50N 34°36' E 138°54'3 7.5
2018-Feb-24 12:28N 34°36' E 138°57'6 8.6
2018-Feb-24 11:47N 34°40' E 139°02'3 9.4
2018-Feb-24 11:30N 34°43' E 139°04'510.1
2018-Feb-24 11:00N 34°47' E 139°08'1210.3
2018-Feb-24 09:50N 34°55' E 139°18'3 9.1
2018-Feb-24 09:28N 34°58' E 139°21'4 8.9
2018-Feb-24 08:58N 35°00' E 139°25'5 9.0
2018-Feb-24 08:22N 35°03' E 139°31'3 9.3
2018-Feb-24 08:00N 35°04' E 139°35'5 9.7
2018-Feb-24 07:31N 35°07' E 139°40'5 9.7
2018-Feb-24 07:00N 35°10' E 139°44'510.6
2018-Feb-24 06:29N 35°15' E 139°46'611.4
2018-Feb-24 05:59N 35°20' E 139°42'510.4
2018-Feb-24 05:30N 35°25' E 139°44'510.9
2018-Feb-24 05:00N 35°28' E 139°49'610.7
2018-Feb-24 04:29N 35°31' E 139°55'510.6
2018-Feb-24 04:00N 35°33' E 140°01'3 0.8
2018-Feb-23 23:48N 35°33' E 140°05'1 3.4
2018-Feb-23 23:30N 35°33' E 140°04'2 4.7
2018-Feb-23 23:00N 35°33' E 140°01'5 9.9
2018-Feb-23 22:30N 35°31' E 139°56'510.7
2018-Feb-23 22:00N 35°28' E 139°51'510.4
2018-Feb-23 21:30N 35°24' E 139°46'510.5
2018-Feb-23 21:00N 35°19' E 139°44'510.1
2018-Feb-23 20:30N 35°14' E 139°47'510.7
2018-Feb-23 20:00N 35°09' E 139°47'510.7
2018-Feb-23 19:31N 35°05' E 139°43'510.7
2018-Feb-23 19:00N 35°01' E 139°38'610.9
2018-Feb-23 18:26N 34°57' E 139°32'1811.5
2018-Feb-23 16:49N 34°47' E 139°14'411.5
2018-Feb-23 16:29N 34°44' E 139°10'611.1
2018-Feb-23 15:56N 34°40' E 139°04'510.8
2018-Feb-23 15:29N 34°37' E 138°59'910.1
2018-Feb-23 14:37N 34°35' E 138°49'411.3
2018-Feb-23 14:16N 34°35' E 138°44'311.4
2018-Feb-23 13:59N 34°34' E 138°41'811.1
2018-Feb-23 13:16N 34°34' E 138°31'511.9
2018-Feb-23 12:53N 34°33' E 138°25'812.3
2018-Feb-23 12:13N 34°33' E 138°15'7012.0
2018-Feb-23 06:24N 34°40' E 136°51'512.4
2018-Feb-23 06:00N 34°44' E 136°48'612.2
2018-Feb-23 05:30N 34°50' E 136°45'612.1
2018-Feb-23 05:00N 34°55' E 136°42'4 6.8
2018-Feb-23 04:26N 34°58' E 136°39'0 0.0
2018-Feb-23 03:50N 34°58' E 136°39'0 0.0
2018-Feb-23 03:26N 34°58' E 136°39'0 0.0
2018-Feb-23 02:56N 34°58' E 136°39'0 0.0
2018-Feb-23 02:26N 34°58' E 136°39'0 0.0
2018-Feb-23 01:56N 34°58' E 136°39'0 0.0
2018-Feb-23 01:26N 34°58' E 136°39'0 0.0
2018-Feb-23 00:56N 34°58' E 136°39'0 0.0
2018-Feb-23 00:26N 34°58' E 136°39'0 0.0
2018-Feb-22 23:50N 34°58' E 136°39'0 0.0
2018-Feb-22 23:26N 34°58' E 136°39'0 0.0
2018-Feb-22 23:01N 34°58' E 136°39'1 1.0
2018-Feb-22 22:29N 34°58' E 136°39'0 0.1
2018-Feb-22 21:59N 34°58' E 136°39'0 0.0
2018-Feb-22 21:26N 34°58' E 136°39'0 0.0
2018-Feb-22 20:56N 34°58' E 136°39'0 0.0
2018-Feb-22 20:29N 34°58' E 136°39'0 0.0
2018-Feb-22 19:59N 34°58' E 136°39'0 0.0
2018-Feb-22 19:29N 34°58' E 136°39'0 0.0
2018-Feb-22 18:59N 34°58' E 136°39'0 0.0
2018-Feb-22 18:29N 34°58' E 136°39'0 0.0
2018-Feb-22 17:59N 34°58' E 136°39'0 0.0
2018-Feb-22 17:29N 34°58' E 136°39'0 0.0
2018-Feb-22 16:59N 34°58' E 136°39'0 0.0
2018-Feb-22 16:29N 34°58' E 136°39'0 0.0
2018-Feb-22 15:53N 34°58' E 136°39'0 0.0
2018-Feb-22 15:26N 34°58' E 136°39'0 0.0
2018-Feb-22 14:59N 34°58' E 136°39'0 0.0
2018-Feb-22 14:26N 34°58' E 136°39'0 0.0
2018-Feb-22 13:56N 34°58' E 136°39'0 0.0
2018-Feb-22 13:26N 34°58' E 136°39'0 0.1
2018-Feb-22 12:56N 34°58' E 136°39'0 0.1
2018-Feb-22 12:29N 34°58' E 136°39'0 0.1
2018-Feb-22 11:56N 34°58' E 136°39'0 0.0
2018-Feb-22 11:29N 34°58' E 136°39'0 0.0
2018-Feb-22 10:53N 34°58' E 136°39'0 0.1
2018-Feb-22 10:29N 34°58' E 136°39'0 0.0
2018-Feb-22 09:56N 34°58' E 136°39'0 0.0
2018-Feb-22 09:29N 34°58' E 136°39'0 0.0
2018-Feb-22 08:56N 34°58' E 136°39'0 0.0
2018-Feb-22 08:29N 34°58' E 136°39'0 0.1
2018-Feb-22 07:50N 34°58' E 136°39'0 0.0
2018-Feb-22 07:20N 34°58' E 136°39'0 0.0
2018-Feb-22 06:59N 34°58' E 136°39'0 0.0
2018-Feb-22 06:26N 34°58' E 136°39'0 0.0
2018-Feb-22 05:59N 34°58' E 136°39'0 0.0
2018-Feb-22 05:29N 34°58' E 136°39'0 0.0
2018-Feb-22 04:56N 34°58' E 136°39'0 0.0
2018-Feb-22 04:29N 34°58' E 136°39'0 0.1
2018-Feb-22 03:56N 34°58' E 136°39'0 0.0
2018-Feb-22 03:23N 34°58' E 136°39'0 0.1
2018-Feb-22 02:56N 34°58' E 136°39'0 0.0
2018-Feb-22 02:29N 34°58' E 136°39'0 0.0
2018-Feb-22 01:59N 34°58' E 136°39'0 0.0
2018-Feb-22 01:26N 34°58' E 136°39'0 0.0
2018-Feb-22 00:56N 34°58' E 136°39'0 0.0
2018-Feb-22 00:26N 34°58' E 136°39'0 0.0
2018-Feb-21 23:56N 34°58' E 136°39'0 0.0
2018-Feb-21 23:26N 34°58' E 136°39'0 0.0
2018-Feb-21 22:59N 34°58' E 136°39'0 0.0
2018-Feb-21 22:29N 34°58' E 136°39'0 0.0
2018-Feb-21 21:59N 34°58' E 136°39'0 0.0
2018-Feb-21 21:29N 34°58' E 136°39'0 0.1
2018-Feb-21 20:50N 34°58' E 136°39'0 0.0
2018-Feb-21 20:29N 34°58' E 136°39'0 0.0
2018-Feb-21 19:56N 34°58' E 136°39'0 0.0
2018-Feb-21 19:26N 34°58' E 136°39'0 0.0
2018-Feb-21 18:59N 34°58' E 136°39'0 0.0
2018-Feb-21 18:29N 34°58' E 136°39'0 0.0
2018-Feb-21 17:56N 34°58' E 136°39'0 0.0
2018-Feb-21 17:14N 34°58' E 136°39'0 0.0
2018-Feb-21 16:56N 34°58' E 136°39'0 0.0
2018-Feb-21 16:26N 34°58' E 136°39'0 0.0
2018-Feb-21 15:56N 34°58' E 136°39'0 0.0
2018-Feb-21 15:29N 34°58' E 136°39'0 0.0
2018-Feb-21 14:59N 34°58' E 136°39'0 0.0
2018-Feb-21 14:26N 34°58' E 136°39'0 0.1
2018-Feb-21 13:56N 34°58' E 136°39'0 0.1
2018-Feb-21 13:26N 34°58' E 136°39'0 0.0
2018-Feb-21 12:56N 34°58' E 136°39'0 0.0
2018-Feb-21 12:29N 34°58' E 136°39'0 0.0
2018-Feb-21 11:50N 34°58' E 136°39'0 0.1
2018-Feb-21 11:29N 34°58' E 136°39'0 0.0
2018-Feb-21 10:56N 34°58' E 136°39'0 0.0
2018-Feb-21 10:26N 34°58' E 136°39'0 0.1
2018-Feb-21 09:50N 34°58' E 136°39'0 0.0
2018-Feb-21 09:26N 34°58' E 136°39'0 0.0
2018-Feb-21 08:50N 34°58' E 136°39'0 0.0
2018-Feb-21 08:26N 34°58' E 136°39'0 0.1
2018-Feb-21 08:00N 34°58' E 136°39'1 2.4
2018-Feb-21 07:27N 34°57' E 136°38'0 0.0
2018-Feb-21 06:51N 34°57' E 136°38'0 0.0
2018-Feb-21 06:21N 34°57' E 136°38'0 0.0
2018-Feb-21 05:57N 34°57' E 136°38'0 0.0
2018-Feb-21 05:27N 34°57' E 136°38'0 0.0
2018-Feb-21 04:57N 34°57' E 136°38'0 0.0
2018-Feb-21 04:27N 34°57' E 136°38'0 0.0
2018-Feb-21 04:00N 34°57' E 136°38'0 0.0
2018-Feb-21 03:30N 34°57' E 136°38'0 0.0
2018-Feb-21 02:57N 34°57' E 136°38'0 0.0
2018-Feb-21 02:27N 34°57' E 136°38'0 0.0
2018-Feb-21 02:00N 34°57' E 136°38'1 1.6
2018-Feb-21 01:30N 34°57' E 136°39'1 1.5
2018-Feb-21 01:00N 34°57' E 136°40'0 0.0
2018-Feb-21 00:30N 34°57' E 136°40'0 0.0
2018-Feb-20 23:57N 34°57' E 136°40'1 1.6
2018-Feb-20 23:30N 34°57' E 136°41'611.2
2018-Feb-20 23:00N 34°52' E 136°44'611.6
2018-Feb-20 22:30N 34°47' E 136°47'611.6
2018-Feb-20 22:00N 34°41' E 136°50'32 9.3
2018-Feb-20 18:36N 34°10' E 136°48'410.9
2018-Feb-20 18:15N 34°07' E 136°45'83 9.2
2018-Feb-20 09:11N 33°48' E 135°07'312.0
2018-Feb-20 08:54N 33°51' E 135°04'512.1
2018-Feb-20 08:30N 33°55' E 135°02'612.5
2018-Feb-20 08:00N 34°01' E 135°01'612.5
2018-Feb-20 07:30N 34°08' E 135°00'612.4
2018-Feb-20 07:00N 34°14' E 134°59'612.5
2018-Feb-20 06:30N 34°20' E 134°60'612.1
2018-Feb-20 06:00N 34°24' E 135°04'612.0
2018-Feb-20 05:30N 34°28' E 135°10'611.4
2018-Feb-20 05:00N 34°32' E 135°16'510.2
2018-Feb-20 04:30N 34°35' E 135°20'4 8.1
2018-Feb-20 04:00N 34°36' E 135°25'1 2.6
2018-Feb-20 03:29N 34°34' E 135°26'0 0.0
2018-Feb-20 02:59N 34°34' E 135°26'0 0.0
2018-Feb-20 02:29N 34°34' E 135°26'0 0.0
2018-Feb-20 01:59N 34°34' E 135°26'0 0.0
2018-Feb-20 01:29N 34°34' E 135°26'0 0.0
2018-Feb-20 00:59N 34°34' E 135°26'0 0.9
2018-Feb-20 00:30N 34°35' E 135°25'4 7.5
2018-Feb-20 00:00N 34°35' E 135°21'611.0
2018-Feb-19 23:30N 34°31' E 135°16'611.2
2018-Feb-19 23:00N 34°27' E 135°11'611.1
2018-Feb-19 22:30N 34°24' E 135°06'510.7
2018-Feb-19 22:00N 34°20' E 135°02'5 9.6
2018-Feb-19 21:30N 34°16' E 134°59'5 9.5
2018-Feb-19 21:00N 34°11' E 135°00'510.3
2018-Feb-19 20:30N 34°06' E 135°01'510.1
2018-Feb-19 20:00N 34°01' E 135°01'510.0
2018-Feb-19 19:30N 33°56' E 135°02'5 9.6
2018-Feb-19 18:58N 33°51' E 135°04'100 7.3
2018-Feb-19 05:12N 34°39' E 136°51'211.0
2018-Feb-19 04:59N 34°41' E 136°49'611.3
2018-Feb-19 04:30N 34°46' E 136°46'611.1
2018-Feb-19 04:00N 34°51' E 136°43'510.6
2018-Feb-19 03:30N 34°56' E 136°41'3 2.4
2018-Feb-19 02:21N 34°58' E 136°39'0 0.0
2018-Feb-19 01:39N 34°58' E 136°39'0 0.0
2018-Feb-19 01:15N 34°58' E 136°39'0 0.0
2018-Feb-19 00:57N 34°58' E 136°39'0 0.0
2018-Feb-19 00:21N 34°58' E 136°39'0 0.0
2018-Feb-18 23:57N 34°58' E 136°39'0 0.0
2018-Feb-18 23:27N 34°58' E 136°39'0 0.0
2018-Feb-18 23:00N 34°58' E 136°39'1 2.4
2018-Feb-18 22:29N 34°57' E 136°40'0 0.1
2018-Feb-18 21:56N 34°57' E 136°40'0 0.0
2018-Feb-18 21:26N 34°57' E 136°40'0 0.0
2018-Feb-18 20:56N 34°57' E 136°40'0 0.0
2018-Feb-18 20:20N 34°57' E 136°40'0 0.0
2018-Feb-18 19:59N 34°57' E 136°40'0 0.0
2018-Feb-18 19:26N 34°57' E 136°40'0 0.0
2018-Feb-18 18:56N 34°57' E 136°40'0 0.0
2018-Feb-18 18:20N 34°57' E 136°40'0 0.0
2018-Feb-18 17:59N 34°57' E 136°40'0 0.0
2018-Feb-18 17:26N 34°57' E 136°40'0 0.0
2018-Feb-18 16:59N 34°57' E 136°40'0 0.0
2018-Feb-18 16:26N 34°57' E 136°40'0 0.0
2018-Feb-18 15:56N 34°57' E 136°40'0 0.0
2018-Feb-18 15:26N 34°57' E 136°40'0 0.0
2018-Feb-18 14:59N 34°57' E 136°40'0 0.0
2018-Feb-18 14:29N 34°57' E 136°40'0 0.0
2018-Feb-18 13:56N 34°57' E 136°40'0 0.0
2018-Feb-18 13:29N 34°57' E 136°40'0 0.0
2018-Feb-18 12:59N 34°57' E 136°40'0 0.0
2018-Feb-18 12:23N 34°57' E 136°40'0 0.0
2018-Feb-18 11:59N 34°57' E 136°40'0 0.0
2018-Feb-18 11:29N 34°57' E 136°40'0 0.0
2018-Feb-18 10:59N 34°57' E 136°40'0 0.0
2018-Feb-18 10:29N 34°57' E 136°40'0 0.0
2018-Feb-18 09:59N 34°57' E 136°40'0 0.0
2018-Feb-18 09:29N 34°57' E 136°40'0 0.0
2018-Feb-18 08:59N 34°57' E 136°40'0 0.0
2018-Feb-18 08:26N 34°57' E 136°40'0 0.0
2018-Feb-18 07:56N 34°57' E 136°40'0 0.0
2018-Feb-18 07:29N 34°57' E 136°40'0 0.0
2018-Feb-18 06:56N 34°57' E 136°40'0 0.0
2018-Feb-18 06:23N 34°57' E 136°40'0 0.0
2018-Feb-18 05:56N 34°57' E 136°40'0 0.0
2018-Feb-18 05:26N 34°57' E 136°40'0 0.0
2018-Feb-18 04:56N 34°57' E 136°40'0 0.0
2018-Feb-18 04:29N 34°57' E 136°40'1 2.1
2018-Feb-18 04:01N 34°58' E 136°40'1 1.4
2018-Feb-18 03:29N 34°58' E 136°39'0 0.0
2018-Feb-18 02:53N 34°58' E 136°39'0 0.0
2018-Feb-18 02:29N 34°58' E 136°39'0 0.0
2018-Feb-18 01:59N 34°58' E 136°39'0 0.0
2018-Feb-18 01:29N 34°58' E 136°39'0 0.0
2018-Feb-18 00:59N 34°58' E 136°39'0 0.0
2018-Feb-18 00:23N 34°58' E 136°39'0 0.0
2018-Feb-17 23:59N 34°58' E 136°39'0 0.0
2018-Feb-17 23:17N 34°58' E 136°39'0 0.0
2018-Feb-17 23:00N 34°58' E 136°39'2 4.6
2018-Feb-17 22:30N 34°56' E 136°41'2 4.0
2018-Feb-17 21:55N 34°54' E 136°41'0 0.1
2018-Feb-17 21:25N 34°54' E 136°41'0 0.0
2018-Feb-17 20:55N 34°54' E 136°41'0 0.0
2018-Feb-17 20:25N 34°54' E 136°41'0 0.1
2018-Feb-17 19:58N 34°54' E 136°41'0 0.0
2018-Feb-17 19:28N 34°54' E 136°41'0 0.0
2018-Feb-17 18:58N 34°54' E 136°41'0 0.0
2018-Feb-17 18:28N 34°54' E 136°41'0 0.0
2018-Feb-17 17:58N 34°54' E 136°41'0 0.0
2018-Feb-17 17:28N 34°54' E 136°41'0 0.0
2018-Feb-17 16:58N 34°54' E 136°41'0 0.0
2018-Feb-17 16:28N 34°54' E 136°41'0 0.0
2018-Feb-17 15:58N 34°54' E 136°41'0 0.0
2018-Feb-17 15:28N 34°54' E 136°41'0 0.1
2018-Feb-17 14:55N 34°54' E 136°41'0 0.0
2018-Feb-17 14:28N 34°54' E 136°41'0 0.0
2018-Feb-17 13:55N 34°54' E 136°41'0 0.0
2018-Feb-17 13:25N 34°54' E 136°41'0 0.0
2018-Feb-17 12:49N 34°54' E 136°41'0 0.0
2018-Feb-17 12:25N 34°54' E 136°41'0 0.0
2018-Feb-17 11:55N 34°54' E 136°41'0 0.0
2018-Feb-17 11:28N 34°54' E 136°41'0 0.0
2018-Feb-17 10:58N 34°54' E 136°41'0 0.0
2018-Feb-17 10:19N 34°54' E 136°41'0 0.0
2018-Feb-17 09:58N 34°54' E 136°41'0 0.0
2018-Feb-17 09:22N 34°54' E 136°41'0 0.0
2018-Feb-17 08:55N 34°54' E 136°41'0 0.1
2018-Feb-17 08:22N 34°54' E 136°41'0 0.1
2018-Feb-17 07:55N 34°54' E 136°41'0 0.0
2018-Feb-17 07:30N 34°54' E 136°41'3 6.8
2018-Feb-17 07:01N 34°51' E 136°43'4 8.8
2018-Feb-17 06:30N 34°48' E 136°46'4 8.7
2018-Feb-17 06:01N 34°44' E 136°49'4 8.6
2018-Feb-17 05:30N 34°40' E 136°51'101 7.0
2018-Feb-16 15:12N 33°49' E 135°07'311.3
2018-Feb-16 14:55N 33°51' E 135°04'511.1
2018-Feb-16 14:31N 33°55' E 135°02'611.6
2018-Feb-16 14:01N 34°01' E 135°01'611.1
2018-Feb-16 13:30N 34°06' E 135°00'611.0
2018-Feb-16 13:00N 34°12' E 134°59'510.6
2018-Feb-16 12:30N 34°17' E 134°58'510.2
2018-Feb-16 12:00N 34°22' E 135°00'611.0
2018-Feb-16 11:30N 34°25' E 135°06'510.9
2018-Feb-16 11:01N 34°29' E 135°11'511.0
2018-Feb-16 10:30N 34°32' E 135°16'511.0
2018-Feb-16 10:01N 34°35' E 135°21'3 6.9
2018-Feb-16 09:30N 34°35' E 135°26'0 0.4
2018-Feb-16 09:00N 34°35' E 135°26'0 0.0
2018-Feb-16 08:30N 34°35' E 135°26'0 0.0
2018-Feb-16 07:57N 34°35' E 135°26'0 0.0
2018-Feb-16 07:30N 34°35' E 135°26'0 0.0
2018-Feb-16 06:57N 34°35' E 135°26'0 0.0
2018-Feb-16 06:27N 34°35' E 135°26'0 0.0
2018-Feb-16 05:57N 34°35' E 135°26'0 0.0
2018-Feb-16 05:27N 34°35' E 135°26'0 0.0
2018-Feb-16 04:56N 34°35' E 135°26'0 0.9
2018-Feb-16 04:31N 34°35' E 135°25'2 3.9
2018-Feb-16 04:01N 34°36' E 135°24'1 1.3
2018-Feb-16 03:26N 34°36' E 135°23'0 0.0
2018-Feb-16 02:59N 34°36' E 135°23'0 0.0
2018-Feb-16 02:29N 34°36' E 135°23'0 0.1
2018-Feb-16 01:59N 34°36' E 135°23'0 0.1
2018-Feb-16 01:29N 34°36' E 135°23'0 0.0
2018-Feb-16 00:59N 34°36' E 135°23'0 0.0
2018-Feb-16 00:29N 34°36' E 135°23'0 0.1
2018-Feb-15 23:59N 34°36' E 135°23'0 0.0
2018-Feb-15 23:29N 34°36' E 135°23'0 0.1
2018-Feb-15 22:59N 34°36' E 135°23'0 0.0
2018-Feb-15 22:29N 34°36' E 135°23'  

Dump ship's entire track history